Time;durP1;ratioP1;P1;durP2;ratioP2;P2;SDS_P1;SDS_P2;PMS_P1;PMS_P2;Temp;Humidity;BMP_temperature;BMP_pressure;BME280_temperature;BME280_humidity;BME280_pressure;Samples;Min_cycle;Max_cycle;Signal;HPM_P1;HPM_P2
2023/12/09 00:00:49;;;;;;;28.85;20.85;;;;;;;;;;5048238;28;20047;-82
2023/12/09 00:03:17;;;;;;;29.42;21.35;;;;;;;;;;5038452;28;20045;-82
2023/12/09 00:05:44;;;;;;;34.25;24.08;;;;;;;;;;5031502;28;20053;-82
2023/12/09 00:08:13;;;;;;;29.58;20.27;;;;;;;;;;5039988;28;20053;-82
2023/12/09 00:10:41;;;;;;;38.72;22.15;;;;;;;;;;5009923;28;20052;-82
2023/12/09 00:13:08;;;;;;;31.60;22.65;;;;;;;;;;5030954;28;20499;-82
2023/12/09 00:15:35;;;;;;;42.92;24.05;;;;;;;;;;5027521;28;20423;-82
2023/12/09 00:18:03;;;;;;;37.85;26.08;;;;;;;;;;5059547;28;20045;-82
2023/12/09 00:20:31;;;;;;;37.60;25.30;;;;;;;;;;5026393;28;20068;-82
2023/12/09 00:23:00;;;;;;;32.95;24.48;;;;;;;;;;5032879;28;20822;-82
2023/12/09 00:25:32;;;;;;;27.10;22.35;;;;;;;;;;5031330;28;20045;-82
2023/12/09 00:27:59;;;;;;;38.63;24.08;;;;;;;;;;5032061;28;20052;-81
2023/12/09 00:30:29;;;;;;;32.45;23.48;;;;;;;;;;5024757;28;20045;-81
2023/12/09 00:32:58;;;;;;;35.53;24.08;;;;;;;;;;5056158;28;20430;-81
2023/12/09 00:35:27;;;;;;;36.33;24.55;;;;;;;;;;5057660;28;20045;-82
2023/12/09 00:37:54;;;;;;;30.77;23.65;;;;;;;;;;5024829;28;20056;-82
2023/12/09 00:40:22;;;;;;;34.67;25.42;;;;;;;;;;5062955;28;20053;-82
2023/12/09 00:42:52;;;;;;;37.30;25.70;;;;;;;;;;5025314;28;20056;-81
2023/12/09 00:45:19;;;;;;;36.72;22.77;;;;;;;;;;5041309;28;20049;-82
2023/12/09 00:47:46;;;;;;;42.05;26.13;;;;;;;;;;5030581;28;20262;-82
2023/12/09 00:50:14;;;;;;;33.70;23.02;;;;;;;;;;5063698;28;20058;-82
2023/12/09 00:52:45;;;;;;;46.13;27.23;;;;;;;;;;5021537;28;20045;-82
2023/12/09 00:55:12;;;;;;;37.10;22.67;;;;;;;;;;5027231;28;20056;-82
2023/12/09 00:57:39;;;;;;;32.72;23.38;;;;;;;;;;5062029;28;20041;-83
2023/12/09 01:00:12;;;;;;;29.42;20.08;;;;;;;;;;5026152;28;20056;-83
2023/12/09 01:02:39;;;;;;;25.98;21.55;;;;;;;;;;5017041;28;20049;-82
2023/12/09 01:05:07;;;;;;;33.33;21.42;;;;;;;;;;5029514;28;20053;-82
2023/12/09 01:07:34;;;;;;;31.35;23.00;;;;;;;;;;5042537;28;20032;-83
2023/12/09 01:10:05;;;;;;;31.52;20.95;;;;;;;;;;5038250;28;20053;-84
2023/12/09 01:12:35;;;;;;;31.65;23.02;;;;;;;;;;5032179;28;20057;-83
2023/12/09 01:15:06;;;;;;;32.97;23.50;;;;;;;;;;5069742;28;20056;-83
2023/12/09 01:17:33;;;;;;;36.15;22.85;;;;;;;;;;5037506;28;20037;-83
2023/12/09 01:20:00;;;;;;;28.65;21.67;;;;;;;;;;5054377;28;20053;-83
2023/12/09 01:22:30;;;;;;;28.98;22.10;;;;;;;;;;5031373;28;20060;-83
2023/12/09 01:24:59;;;;;;;35.95;24.10;;;;;;;;;;5028582;28;20053;-83
2023/12/09 01:27:30;;;;;;;35.13;22.88;;;;;;;;;;5026026;28;20045;-82
2023/12/09 01:29:59;;;;;;;29.98;22.15;;;;;;;;;;5023230;28;20064;-82
2023/12/09 01:32:29;;;;;;;29.92;22.05;;;;;;;;;;5032012;28;20056;-82
2023/12/09 01:34:58;;;;;;;27.75;21.45;;;;;;;;;;5021891;28;20057;-82
2023/12/09 01:37:27;;;;;;;32.60;20.67;;;;;;;;;;5043655;28;20052;-83
2023/12/09 01:39:57;;;;;;;28.48;20.52;;;;;;;;;;5044147;28;20052;-83
2023/12/09 01:42:24;;;;;;;27.70;21.38;;;;;;;;;;5036670;28;20056;-83
2023/12/09 01:44:55;;;;;;;26.42;20.80;;;;;;;;;;5045424;28;20048;-83
2023/12/09 01:47:22;;;;;;;25.08;20.48;;;;;;;;;;5039754;28;20056;-83
2023/12/09 01:49:49;;;;;;;25.02;20.08;;;;;;;;;;5029675;28;20063;-83
2023/12/09 01:52:17;;;;;;;23.45;18.33;;;;;;;;;;5060972;22;20499;-80
2023/12/09 01:54:44;;;;;;;23.90;19.23;;;;;;;;;;5017367;28;20045;-80
2023/12/09 01:57:11;;;;;;;29.95;21.10;;;;;;;;;;5022106;28;20057;-80
2023/12/09 01:59:41;;;;;;;29.50;20.58;;;;;;;;;;5025665;28;20071;-80
2023/12/09 02:02:12;;;;;;;26.92;19.85;;;;;;;;;;5003533;28;20056;-80
2023/12/09 02:04:42;;;;;;;27.63;20.33;;;;;;;;;;5024706;28;20045;-80
2023/12/09 02:07:09;;;;;;;27.25;18.38;;;;;;;;;;5025232;28;20057;-80
2023/12/09 02:09:40;;;;;;;27.67;19.02;;;;;;;;;;5019847;28;20061;-80
2023/12/09 02:12:15;;;;;;;31.85;21.20;;;;;;;;;;5006539;28;20064;-80
2023/12/09 02:14:49;;;;;;;20.25;16.73;;;;;;;;;;5007954;28;20049;-80
2023/12/09 02:17:21;;;;;;;24.33;16.73;;;;;;;;;;5026485;28;20038;-80
2023/12/09 02:19:49;;;;;;;20.02;16.63;;;;;;;;;;5024433;28;20385;-80
2023/12/09 02:22:16;;;;;;;26.33;20.20;;;;;;;;;;5006184;28;20518;-80
2023/12/09 02:24:47;;;;;;;24.27;16.27;;;;;;;;;;5025383;28;20053;-80
2023/12/09 02:27:21;;;;;;;24.73;18.92;;;;;;;;;;5006960;28;20518;-80
2023/12/09 02:29:54;;;;;;;26.13;19.27;;;;;;;;;;5024216;28;20064;-80
2023/12/09 02:32:24;;;;;;;21.85;19.33;;;;;;;;;;5020890;28;20054;-80
2023/12/09 02:34:53;;;;;;;26.60;19.33;;;;;;;;;;5003770;28;20397;-80
2023/12/09 02:37:25;;;;;;;;;;;;;;;;;;5023030;28;20052;-80
2023/12/09 02:39:55;;;;;;;22.02;18.20;;;;;;;;;;5003077;28;19925;-80
2023/12/09 02:42:23;;;;;;;21.60;18.58;;;;;;;;;;5032722;28;20049;-80
2023/12/09 02:44:52;;;;;;;27.77;19.73;;;;;;;;;;5006385;28;20045;-80
2023/12/09 02:47:19;;;;;;;29.17;19.38;;;;;;;;;;5001796;28;20053;-80
2023/12/09 02:49:49;;;;;;;25.92;18.52;;;;;;;;;;5005256;28;20037;-80
2023/12/09 02:52:16;;;;;;;26.05;21.30;;;;;;;;;;5030366;28;20423;-80
2023/12/09 02:54:43;;;;;;;20.88;16.77;;;;;;;;;;5006908;28;20048;-80
2023/12/09 02:57:12;;;;;;;29.88;18.92;;;;;;;;;;5025148;28;20057;-80
2023/12/09 02:59:40;;;;;;;28.80;18.50;;;;;;;;;;5019790;28;20053;-80
2023/12/09 03:02:07;;;;;;;22.80;19.17;;;;;;;;;;5019393;28;20060;-80
2023/12/09 03:04:37;;;;;;;24.63;18.27;;;;;;;;;;5040720;28;20059;-80
2023/12/09 03:07:07;;;;;;;31.35;21.13;;;;;;;;;;5042585;28;20062;-80
2023/12/09 03:09:36;;;;;;;29.15;19.88;;;;;;;;;;5057499;28;20056;-80
2023/12/09 03:12:04;;;;;;;23.65;18.90;;;;;;;;;;5042986;28;20525;-80
2023/12/09 03:14:36;;;;;;;27.20;18.65;;;;;;;;;;5041965;28;20045;-80
2023/12/09 03:17:03;;;;;;;29.83;20.85;;;;;;;;;;5042505;28;20064;-80
2023/12/09 03:19:35;;;;;;;24.33;20.08;;;;;;;;;;5045634;28;20545;-80
2023/12/09 03:22:02;;;;;;;25.77;17.00;;;;;;;;;;5023571;28;20059;-80
2023/12/09 03:24:32;;;;;;;29.05;19.73;;;;;;;;;;5023406;28;20057;-80
2023/12/09 03:27:01;;;;;;;27.67;19.13;;;;;;;;;;5024387;28;20081;-80
2023/12/09 03:29:29;;;;;;;25.52;18.73;;;;;;;;;;5042319;28;20056;-80
2023/12/09 03:31:57;;;;;;;28.98;20.05;;;;;;;;;;5036481;28;20071;-80
2023/12/09 03:34:24;;;;;;;24.90;18.35;;;;;;;;;;5025410;28;20049;-80
2023/12/09 03:36:56;;;;;;;27.15;18.67;;;;;;;;;;5027330;28;20065;-80
2023/12/09 03:39:24;;;;;;;25.25;17.02;;;;;;;;;;5031917;28;20049;-80
2023/12/09 03:41:53;;;;;;;32.03;20.10;;;;;;;;;;5022949;28;20049;-80
2023/12/09 03:44:23;;;;;;;27.80;20.02;;;;;;;;;;5035136;28;20049;-80
2023/12/09 03:46:50;;;;;;;26.38;18.88;;;;;;;;;;5034668;28;20044;-80
2023/12/09 03:49:18;;;;;;;25.27;19.08;;;;;;;;;;5035932;28;20045;-80
2023/12/09 03:51:48;;;;;;;28.85;21.88;;;;;;;;;;5045723;28;20049;-80
2023/12/09 03:54:15;;;;;;;31.50;19.90;;;;;;;;;;5042736;28;20049;-80
2023/12/09 03:56:45;;;;;;;35.45;23.55;;;;;;;;;;5026337;28;20056;-80
2023/12/09 03:59:12;;;;;;;35.00;22.17;;;;;;;;;;5020790;28;20052;-80
2023/12/09 04:01:47;;;;;;;42.70;22.50;;;;;;;;;;5023324;28;20053;-80
2023/12/09 04:04:16;;;;;;;33.25;21.73;;;;;;;;;;5025287;28;20056;-80
2023/12/09 04:06:47;;;;;;;38.72;25.02;;;;;;;;;;5043308;28;20052;-80
2023/12/09 04:09:17;;;;;;;35.53;23.33;;;;;;;;;;5045647;28;20063;-80
2023/12/09 04:11:44;;;;;;;37.03;22.30;;;;;;;;;;5043161;28;20049;-80
2023/12/09 04:14:11;;;;;;;46.50;23.92;;;;;;;;;;5019574;28;20053;-80
2023/12/09 04:16:38;;;;;;;32.05;22.13;;;;;;;;;;5027713;28;20053;-80
2023/12/09 04:19:06;;;;;;;34.72;25.40;;;;;;;;;;5048491;28;20450;-80
2023/12/09 04:21:33;;;;;;;48.55;26.13;;;;;;;;;;5047514;28;20061;-80
2023/12/09 04:24:01;;;;;;;38.88;25.15;;;;;;;;;;5032909;28;20053;-80
2023/12/09 04:26:33;;;;;;;42.85;24.08;;;;;;;;;;5043355;28;20072;-80
2023/12/09 04:29:00;;;;;;;41.25;23.63;;;;;;;;;;5032282;28;20029;-80
2023/12/09 04:31:28;;;;;;;37.92;23.30;;;;;;;;;;5046787;28;20049;-80
2023/12/09 04:33:55;;;;;;;37.03;23.58;;;;;;;;;;5041305;28;20059;-80
2023/12/09 04:36:22;;;;;;;43.47;22.83;;;;;;;;;;5041036;28;20063;-80
2023/12/09 04:38:49;;;;;;;38.05;22.13;;;;;;;;;;5050058;28;20027;-80
2023/12/09 04:41:22;;;;;;;36.97;22.52;;;;;;;;;;5055018;28;20059;-80
2023/12/09 04:43:51;;;;;;;34.08;23.80;;;;;;;;;;5040992;28;20059;-80
2023/12/09 04:46:18;;;;;;;33.85;22.17;;;;;;;;;;5051374;28;20055;-80
2023/12/09 04:48:45;;;;;;;49.17;21.60;;;;;;;;;;5034475;28;20051;-80
2023/12/09 04:51:13;;;;;;;32.13;21.77;;;;;;;;;;5043283;28;20046;-80
2023/12/09 04:53:42;;;;;;;43.47;25.52;;;;;;;;;;5047517;28;20059;-80
2023/12/09 04:56:12;;;;;;;50.78;26.88;;;;;;;;;;5069359;28;20116;-80
2023/12/09 04:58:43;;;;;;;43.25;22.63;;;;;;;;;;5036469;28;20063;-80
2023/12/09 05:01:12;;;;;;;32.63;22.85;;;;;;;;;;5044165;28;20052;-80
2023/12/09 05:03:39;;;;;;;40.13;22.50;;;;;;;;;;5025016;28;20084;-80
2023/12/09 05:06:09;;;;;;;35.90;20.70;;;;;;;;;;5046139;28;20064;-80
2023/12/09 05:08:36;;;;;;;33.00;18.85;;;;;;;;;;5046594;28;20049;-80
2023/12/09 05:11:06;;;;;;;34.72;22.27;;;;;;;;;;5030705;28;20391;-80
2023/12/09 05:13:34;;;;;;;29.33;19.70;;;;;;;;;;5039859;28;20068;-80
2023/12/09 05:16:06;;;;;;;24.75;17.88;;;;;;;;;;5053005;28;20064;-80
2023/12/09 05:18:34;;;;;;;31.90;20.00;;;;;;;;;;5035375;28;20039;-80
2023/12/09 05:21:05;;;;;;;36.60;21.52;;;;;;;;;;5033420;28;20052;-80
2023/12/09 05:23:32;;;;;;;38.60;22.35;;;;;;;;;;5026025;28;20045;-80
2023/12/09 05:26:00;;;;;;;41.90;18.85;;;;;;;;;;5042769;28;20045;-80
2023/12/09 05:28:27;;;;;;;50.47;24.52;;;;;;;;;;5036157;28;20061;-80
2023/12/09 05:30:57;;;;;;;40.85;23.25;;;;;;;;;;5054607;28;20057;-80
2023/12/09 05:33:25;;;;;;;36.13;19.70;;;;;;;;;;5044162;28;20041;-80
2023/12/09 05:35:52;;;;;;;41.47;22.02;;;;;;;;;;5026322;28;20048;-80
2023/12/09 05:38:22;;;;;;;39.38;25.38;;;;;;;;;;5023781;28;20088;-80
2023/12/09 05:40:49;;;;;;;36.58;23.27;;;;;;;;;;5021853;28;20046;-80
2023/12/09 05:43:16;;;;;;;29.92;19.35;;;;;;;;;;5056175;28;20056;-80
2023/12/09 05:45:47;;;;;;;30.73;21.00;;;;;;;;;;5045495;28;20060;-81
2023/12/09 05:48:16;;;;;;;28.30;20.85;;;;;;;;;;5042532;28;20063;-81
2023/12/09 05:50:45;;;;;;;44.38;25.15;;;;;;;;;;5032925;28;20040;-81
2023/12/09 05:53:15;;;;;;;31.17;19.23;;;;;;;;;;5066890;28;20343;-81
2023/12/09 05:55:44;;;;;;;43.17;23.05;;;;;;;;;;5027627;28;20049;-81
2023/12/09 05:58:11;;;;;;;42.53;24.38;;;;;;;;;;5060463;28;20053;-81
2023/12/09 06:00:38;;;;;;;41.72;23.73;;;;;;;;;;5027340;28;20045;-81
2023/12/09 06:03:08;;;;;;;55.33;28.15;;;;;;;;;;5032158;28;20079;-81
2023/12/09 06:05:35;;;;;;;44.33;22.27;;;;;;;;;;5060399;28;20048;-81
2023/12/09 06:08:04;;;;;;;26.30;20.23;;;;;;;;;;5051847;28;20048;-81
2023/12/09 06:10:31;;;;;;;26.77;19.52;;;;;;;;;;5043862;28;20052;-81
2023/12/09 06:12:58;;;;;;;24.98;19.05;;;;;;;;;;5034252;28;20056;-81
2023/12/09 06:15:28;;;;;;;29.55;18.20;;;;;;;;;;5044819;28;20051;-81
2023/12/09 06:17:55;;;;;;;21.52;17.50;;;;;;;;;;5032582;28;20051;-81
2023/12/09 06:20:22;;;;;;;42.58;22.88;;;;;;;;;;5022620;28;20056;-81
2023/12/09 06:22:53;;;;;;;20.23;16.30;;;;;;;;;;5029268;28;20060;-81
2023/12/09 06:25:21;;;;;;;30.50;21.52;;;;;;;;;;5039110;28;20056;-81
2023/12/09 06:27:51;;;;;;;19.20;15.77;;;;;;;;;;5040215;28;20037;-81
2023/12/09 06:30:18;;;;;;;39.97;22.17;;;;;;;;;;5019766;28;20049;-81
2023/12/09 06:32:47;;;;;;;23.70;17.27;;;;;;;;;;5025279;28;20135;-80
2023/12/09 06:35:19;;;;;;;31.83;18.88;;;;;;;;;;5050392;28;20053;-80
2023/12/09 06:37:49;;;;;;;28.98;18.63;;;;;;;;;;5048594;28;20048;-80
2023/12/09 06:40:18;;;;;;;39.53;23.90;;;;;;;;;;5046046;28;20052;-80
2023/12/09 06:42:49;;;;;;;41.70;23.75;;;;;;;;;;5046097;28;20594;-80
2023/12/09 06:45:17;;;;;;;22.65;18.88;;;;;;;;;;5038580;28;20062;-80
2023/12/09 06:47:49;;;;;;;26.67;22.60;;;;;;;;;;5032836;28;20052;-80
2023/12/09 06:50:16;;;;;;;23.40;18.45;;;;;;;;;;5025033;28;20046;-80
2023/12/09 06:52:46;;;;;;;38.47;18.90;;;;;;;;;;5062239;28;20048;-80
2023/12/09 06:55:13;;;;;;;29.20;18.02;;;;;;;;;;5054103;28;20057;-80
2023/12/09 06:57:45;;;;;;;26.65;20.08;;;;;;;;;;5039813;28;20042;-80
2023/12/09 07:00:17;;;;;;;20.00;16.63;;;;;;;;;;5041784;28;20056;-81
2023/12/09 07:02:47;;;;;;;29.48;20.98;;;;;;;;;;5063664;28;20069;-80
2023/12/09 07:05:17;;;;;;;20.60;17.48;;;;;;;;;;5063274;28;20053;-80
2023/12/09 07:07:48;;;;;;;29.83;20.50;;;;;;;;;;5040201;28;20047;-80
2023/12/09 07:10:18;;;;;;;23.33;17.63;;;;;;;;;;5042907;28;20041;-81
2023/12/09 07:12:45;;;;;;;26.55;17.60;;;;;;;;;;5047143;28;20043;-80
2023/12/09 07:15:16;;;;;;;27.17;18.13;;;;;;;;;;5030934;28;20517;-81
2023/12/09 07:17:43;;;;;;;24.85;16.08;;;;;;;;;;5049386;28;20061;-80
2023/12/09 07:20:11;;;;;;;25.20;18.48;;;;;;;;;;5046965;28;20411;-80
2023/12/09 07:22:38;;;;;;;25.02;18.27;;;;;;;;;;5019381;28;20056;-80
2023/12/09 07:25:06;;;;;;;25.48;18.83;;;;;;;;;;5033165;28;20518;-80
2023/12/09 07:27:33;;;;;;;25.50;18.20;;;;;;;;;;5014506;28;20045;-80
2023/12/09 07:30:05;;;;;;;19.88;16.70;;;;;;;;;;5017412;28;20052;-81
2023/12/09 07:32:33;;;;;;;22.15;15.35;;;;;;;;;;5020940;28;20064;-81
2023/12/09 07:35:01;;;;;;;23.58;17.60;;;;;;;;;;5024860;28;20064;-81
2023/12/09 07:37:28;;;;;;;21.80;18.48;;;;;;;;;;5035401;28;20061;-81
2023/12/09 07:39:57;;;;;;;20.42;15.23;;;;;;;;;;5015813;28;20056;-80
2023/12/09 07:42:24;;;;;;;24.38;17.30;;;;;;;;;;5031177;28;20053;-81
2023/12/09 07:44:54;;;;;;;17.50;14.35;;;;;;;;;;5027279;28;20052;-81
2023/12/09 07:47:21;;;;;;;21.95;14.50;;;;;;;;;;5020063;28;20057;-81
2023/12/09 07:49:52;;;;;;;18.40;16.15;;;;;;;;;;5068047;22;20087;-78
2023/12/09 07:52:20;;;;;;;18.67;15.80;;;;;;;;;;5020019;28;20545;-78
2023/12/09 07:54:47;;;;;;;23.80;17.38;;;;;;;;;;5052591;28;20052;-78
2023/12/09 07:57:14;;;;;;;23.13;17.90;;;;;;;;;;5035730;28;20052;-78
2023/12/09 07:59:42;;;;;;;24.73;17.63;;;;;;;;;;5014236;28;20060;-78
2023/12/09 08:02:09;;;;;;;19.85;17.05;;;;;;;;;;5020852;28;20053;-78
2023/12/09 08:04:38;;;;;;;18.92;15.77;;;;;;;;;;5024148;28;20058;-78
2023/12/09 08:07:06;;;;;;;18.13;14.88;;;;;;;;;;4993689;28;20049;-78
2023/12/09 08:09:34;;;;;;;20.92;15.50;;;;;;;;;;5048029;28;20041;-78
2023/12/09 08:12:01;;;;;;;22.35;17.73;;;;;;;;;;5052328;28;20041;-78
2023/12/09 08:14:28;;;;;;;21.30;17.15;;;;;;;;;;5037287;28;20068;-78
2023/12/09 08:16:56;;;;;;;23.10;16.35;;;;;;;;;;5033926;28;20057;-77
2023/12/09 08:19:23;;;;;;;23.05;18.48;;;;;;;;;;5036624;28;20392;-77
2023/12/09 08:21:50;;;;;;;19.20;15.02;;;;;;;;;;5037563;28;20063;-77
2023/12/09 08:24:19;;;;;;;28.63;19.10;;;;;;;;;;5035106;28;20057;-77
2023/12/09 08:26:46;;;;;;;26.75;18.63;;;;;;;;;;5015324;28;20538;-77
2023/12/09 08:29:14;;;;;;;21.55;15.18;;;;;;;;;;5015678;28;20396;-77
2023/12/09 08:31:41;;;;;;;19.00;15.30;;;;;;;;;;5014411;28;20049;-77
2023/12/09 08:34:09;;;;;;;26.52;18.38;;;;;;;;;;5058955;28;20053;-77
2023/12/09 08:36:36;;;;;;;19.30;17.30;;;;;;;;;;5050300;28;20041;-77
2023/12/09 08:39:03;;;;;;;18.80;16.30;;;;;;;;;;5028358;28;20049;-77
2023/12/09 08:41:34;;;;;;;20.02;16.60;;;;;;;;;;5014114;28;21405;-77
2023/12/09 08:44:03;;;;;;;27.75;18.27;;;;;;;;;;5014783;28;20061;-77
2023/12/09 08:46:30;;;;;;;21.80;17.20;;;;;;;;;;5028661;28;20391;-77
2023/12/09 08:49:00;;;;;;;23.10;18.30;;;;;;;;;;5018958;28;20075;-78
2023/12/09 08:51:29;;;;;;;26.50;19.70;;;;;;;;;;5023268;28;20060;-78
2023/12/09 08:53:59;;;;;;;25.13;17.67;;;;;;;;;;5015612;28;20048;-79
2023/12/09 08:56:28;;;;;;;22.83;17.52;;;;;;;;;;5015015;28;20049;-79
2023/12/09 08:58:57;;;;;;;27.67;20.67;;;;;;;;;;5000264;28;20053;-79
2023/12/09 09:01:24;;;;;;;28.25;20.90;;;;;;;;;;5029507;28;20392;-78
2023/12/09 09:03:51;;;;;;;23.65;20.52;;;;;;;;;;4996020;28;20088;-78
2023/12/09 09:06:18;;;;;;;27.08;20.73;;;;;;;;;;4998827;28;20060;-78
2023/12/09 09:08:46;;;;;;;24.58;19.77;;;;;;;;;;5001242;28;20054;-78
2023/12/09 09:11:13;;;;;;;23.42;18.38;;;;;;;;;;4999583;28;20488;-78
2023/12/09 09:13:42;;;;;;;24.25;20.20;;;;;;;;;;5010140;28;20060;-78
2023/12/09 09:16:16;;;;;;;29.35;20.20;;;;;;;;;;5021586;28;20054;-79
2023/12/09 09:18:48;;;;;;;26.25;18.65;;;;;;;;;;5034156;28;20053;-79
2023/12/09 09:21:17;;;;;;;24.88;18.80;;;;;;;;;;5030759;28;20064;-79
2023/12/09 09:23:47;;;;;;;23.30;18.90;;;;;;;;;;4998745;28;20056;-78
2023/12/09 09:26:19;;;;;;;18.80;16.70;;;;;;;;;;5009953;28;20072;-79
2023/12/09 09:28:46;;;;;;;20.67;16.85;;;;;;;;;;5007595;28;20057;-79
2023/12/09 09:31:17;;;;;;;21.50;17.67;;;;;;;;;;5035648;28;20052;-79
2023/12/09 09:33:44;;;;;;;20.35;16.55;;;;;;;;;;5005825;28;20050;-79
2023/12/09 09:36:11;;;;;;;23.48;18.67;;;;;;;;;;5018734;28;20108;-79
2023/12/09 09:38:39;;;;;;;21.67;18.33;;;;;;;;;;5005973;28;20392;-79
2023/12/09 09:41:08;;;;;;;19.27;15.13;;;;;;;;;;4995811;28;20045;-79
2023/12/09 09:43:40;;;;;;;21.15;17.30;;;;;;;;;;4992564;28;20503;-79
2023/12/09 09:46:08;;;;;;;21.77;17.35;;;;;;;;;;5036630;28;20053;-79
2023/12/09 09:48:39;;;;;;;21.15;14.40;;;;;;;;;;5019224;28;20048;-79
2023/12/09 09:51:09;;;;;;;18.38;14.95;;;;;;;;;;5033110;28;20410;-79
2023/12/09 09:53:42;;;;;;;20.05;14.32;;;;;;;;;;5018648;28;20055;-79
2023/12/09 09:56:12;;;;;;;18.58;15.07;;;;;;;;;;5036111;28;20068;-79
2023/12/09 09:58:40;;;;;;;19.35;15.30;;;;;;;;;;5023382;28;20044;-79
2023/12/09 10:01:11;;;;;;;19.77;15.52;;;;;;;;;;5043504;28;20055;-80
2023/12/09 10:03:40;;;;;;;19.23;15.77;;;;;;;;;;5021560;28;20049;-80
2023/12/09 10:06:10;;;;;;;19.00;16.27;;;;;;;;;;5057435;28;20044;-80
2023/12/09 10:08:37;;;;;;;19.23;15.85;;;;;;;;;;5018963;28;20049;-80
2023/12/09 10:11:05;;;;;;;17.20;12.35;;;;;;;;;;5060311;28;20045;-80
2023/12/09 10:13:37;;;;;;;16.08;12.25;;;;;;;;;;5041280;28;20041;-80
2023/12/09 10:16:08;;;;;;;20.85;12.55;;;;;;;;;;5038238;28;20470;-80
2023/12/09 10:18:36;;;;;;;16.67;12.50;;;;;;;;;;5054461;28;20411;-79
2023/12/09 10:21:08;;;;;;;19.05;13.32;;;;;;;;;;5057322;28;20032;-79
2023/12/09 10:23:38;;;;;;;17.42;13.65;;;;;;;;;;5041222;28;20052;-79
2023/12/09 10:26:05;;;;;;;15.65;13.35;;;;;;;;;;5021711;28;20048;-79
2023/12/09 10:28:35;;;;;;;15.73;12.35;;;;;;;;;;5053244;28;20052;-79
2023/12/09 10:31:03;;;;;;;16.67;14.65;;;;;;;;;;5058230;28;20057;-79
2023/12/09 10:33:30;;;;;;;20.58;16.90;;;;;;;;;;5040661;28;20048;-79
2023/12/09 10:35:58;;;;;;;23.42;18.38;;;;;;;;;;5046447;28;20048;-79
2023/12/09 10:38:27;;;;;;;20.23;16.33;;;;;;;;;;5024337;28;20367;-79
2023/12/09 10:40:57;;;;;;;18.50;16.10;;;;;;;;;;5030628;28;20447;-79
2023/12/09 10:43:25;;;;;;;19.27;16.65;;;;;;;;;;5041094;28;20041;-79
2023/12/09 10:45:52;;;;;;;21.92;15.95;;;;;;;;;;5034359;28;20048;-79
2023/12/09 10:48:19;;;;;;;20.60;15.50;;;;;;;;;;5042754;28;20044;-79
2023/12/09 10:50:48;;;;;;;16.00;14.30;;;;;;;;;;5025426;28;20056;-80
2023/12/09 10:53:17;;;;;;;16.15;13.50;;;;;;;;;;5015490;28;20045;-80
2023/12/09 10:55:49;;;;;;;16.95;14.20;;;;;;;;;;5002890;28;20060;-80
2023/12/09 10:58:19;;;;;;;14.05;12.57;;;;;;;;;;5021779;28;20048;-80
2023/12/09 11:00:48;;;;;;;15.48;11.25;;;;;;;;;;5037400;28;20122;-80
2023/12/09 11:03:16;;;;;;;12.43;11.07;;;;;;;;;;5011079;28;20056;-80
2023/12/09 11:05:46;;;;;;;14.70;10.50;;;;;;;;;;5014527;28;20045;-80
2023/12/09 11:08:16;;;;;;;10.45;8.98;;;;;;;;;;5032362;28;20048;-80
2023/12/09 11:10:47;;;;;;;13.75;10.02;;;;;;;;;;5021605;28;20045;-80
2023/12/09 11:13:18;;;;;;;13.90;11.52;;;;;;;;;;5022666;28;20041;-80
2023/12/09 11:15:46;;;;;;;11.35;9.77;;;;;;;;;;5026611;28;20049;-80
2023/12/09 11:18:16;;;;;;;10.98;9.23;;;;;;;;;;5024722;28;20042;-80
2023/12/09 11:20:46;;;;;;;12.40;9.60;;;;;;;;;;5002644;28;20064;-80
2023/12/09 11:23:16;;;;;;;11.75;9.85;;;;;;;;;;5020330;28;20044;-80
2023/12/09 11:25:44;;;;;;;11.65;10.38;;;;;;;;;;5000962;28;20046;-80
2023/12/09 11:28:13;;;;;;;12.23;10.40;;;;;;;;;;5004566;28;20057;-80
2023/12/09 11:30:45;;;;;;;12.90;10.52;;;;;;;;;;5015519;28;20041;-80
2023/12/09 11:33:16;;;;;;;19.27;10.82;;;;;;;;;;5026244;28;20052;-80
2023/12/09 11:35:45;;;;;;;14.27;11.15;;;;;;;;;;4997964;28;20045;-80
2023/12/09 11:38:16;;;;;;;12.35;11.15;;;;;;;;;;5041074;28;20407;-79
2023/12/09 11:40:46;;;;;;;11.02;9.55;;;;;;;;;;5014111;28;20052;-80
2023/12/09 11:43:13;;;;;;;12.05;9.75;;;;;;;;;;5033987;28;20041;-81
2023/12/09 11:45:41;;;;;;;17.40;11.80;;;;;;;;;;5033071;28;20046;-79
2023/12/09 11:48:10;;;;;;;14.70;11.32;;;;;;;;;;4997339;28;20049;-79
2023/12/09 11:50:40;;;;;;;14.23;12.02;;;;;;;;;;4998848;28;20054;-80
2023/12/09 11:53:10;;;;;;;11.25;10.18;;;;;;;;;;5020991;28;20049;-80
2023/12/09 11:55:40;;;;;;;13.20;11.20;;;;;;;;;;5017828;28;20060;-79
2023/12/09 11:58:10;;;;;;;15.35;11.05;;;;;;;;;;5003124;28;20050;-79
2023/12/09 12:00:39;;;;;;;13.35;10.80;;;;;;;;;;5032700;28;20042;-79
2023/12/09 12:03:06;;;;;;;12.95;9.98;;;;;;;;;;5001501;28;20675;-80
2023/12/09 12:05:36;;;;;;;11.68;10.35;;;;;;;;;;5017365;28;20058;-80
2023/12/09 12:08:03;;;;;;;11.35;10.15;;;;;;;;;;4998608;28;20080;-80
2023/12/09 12:10:31;;;;;;;11.75;10.38;;;;;;;;;;5012453;28;20045;-79
2023/12/09 12:12:58;;;;;;;15.23;11.45;;;;;;;;;;5018453;28;20068;-79
2023/12/09 12:15:28;;;;;;;10.93;8.93;;;;;;;;;;5018637;28;20049;-80
2023/12/09 12:18:01;;;;;;;10.73;9.65;;;;;;;;;;5014939;28;20042;-80
2023/12/09 12:20:28;;;;;;;10.02;9.02;;;;;;;;;;4999486;28;20046;-79
2023/12/09 12:22:59;;;;;;;12.38;9.73;;;;;;;;;;5005487;28;20065;-79
2023/12/09 12:25:29;;;;;;;15.43;10.77;;;;;;;;;;5018320;28;20600;-80
2023/12/09 12:27:57;;;;;;;14.25;12.07;;;;;;;;;;5001554;28;20053;-80
2023/12/09 12:30:25;;;;;;;16.02;10.90;;;;;;;;;;5012563;28;20049;-79
2023/12/09 12:32:55;;;;;;;13.65;9.57;;;;;;;;;;5020780;28;20427;-79
2023/12/09 12:35:25;;;;;;;11.57;9.75;;;;;;;;;;5004300;28;20061;-79
2023/12/09 12:37:57;;;;;;;12.27;8.63;;;;;;;;;;5039292;28;20056;-79
2023/12/09 12:40:26;;;;;;;10.88;8.75;;;;;;;;;;5021029;28;20054;-79
2023/12/09 12:42:56;;;;;;;9.32;6.90;;;;;;;;;;5017600;28;20042;-79
2023/12/09 12:45:26;;;;;;;7.75;6.82;;;;;;;;;;5020816;28;20061;-79
2023/12/09 12:47:53;;;;;;;6.80;6.10;;;;;;;;;;5003943;28;20053;-79
2023/12/09 12:50:22;;;;;;;8.25;5.95;;;;;;;;;;5025189;28;20036;-79
2023/12/09 12:52:52;;;;;;;6.43;5.10;;;;;;;;;;5029066;28;20049;-79
2023/12/09 12:55:19;;;;;;;5.85;3.78;;;;;;;;;;5061229;28;20040;-79
2023/12/09 12:57:48;;;;;;;5.68;4.78;;;;;;;;;;5043135;28;20064;-79
2023/12/09 13:00:19;;;;;;;7.68;4.15;;;;;;;;;;5025403;28;20041;-79
2023/12/09 13:02:50;;;;;;;4.13;3.33;;;;;;;;;;5042366;28;20052;-79
2023/12/09 13:05:19;;;;;;;3.83;3.10;;;;;;;;;;5023399;28;20053;-80
2023/12/09 13:07:47;;;;;;;6.55;3.53;;;;;;;;;;5045447;28;20064;-80
2023/12/09 13:10:15;;;;;;;4.30;3.25;;;;;;;;;;5025205;28;20483;-80
2023/12/09 13:12:45;;;;;;;7.32;3.53;;;;;;;;;;5025059;28;20049;-80
2023/12/09 13:15:14;;;;;;;7.07;4.75;;;;;;;;;;5042237;28;20057;-80
2023/12/09 13:17:42;;;;;;;3.25;2.65;;;;;;;;;;5025930;28;20422;-80
2023/12/09 13:20:12;;;;;;;5.25;3.85;;;;;;;;;;5041013;28;20052;-80
2023/12/09 13:22:45;;;;;;;4.32;2.80;;;;;;;;;;5025391;28;20056;-80
2023/12/09 13:25:13;;;;;;;3.75;2.72;;;;;;;;;;5025362;28;20061;-79
2023/12/09 13:27:41;;;;;;;6.00;3.65;;;;;;;;;;5025617;28;20053;-79
2023/12/09 13:30:13;;;;;;;2.60;2.17;;;;;;;;;;5024104;28;20513;-79
2023/12/09 13:32:43;;;;;;;3.95;2.45;;;;;;;;;;5033461;28;20049;-79
2023/12/09 13:35:10;;;;;;;3.28;2.97;;;;;;;;;;5041091;28;20400;-79
2023/12/09 13:37:38;;;;;;;3.22;2.60;;;;;;;;;;5039210;28;20040;-79
2023/12/09 13:40:07;;;;;;;4.80;2.50;;;;;;;;;;5053906;28;20048;-79
2023/12/09 13:42:35;;;;;;;2.72;2.50;;;;;;;;;;5020807;28;20041;-80
2023/12/09 13:45:02;;;;;;;2.63;2.42;;;;;;;;;;5037713;28;20052;-80
2023/12/09 13:47:32;;;;;;;3.30;2.60;;;;;;;;;;5052687;28;20053;-80
2023/12/09 13:50:01;;;;;;;3.55;2.60;;;;;;;;;;5039877;28;20052;-80
2023/12/09 13:52:31;;;;;;;3.95;3.08;;;;;;;;;;5075351;22;20055;-79
2023/12/09 13:54:59;;;;;;;3.10;2.60;;;;;;;;;;5036640;28;20053;-79
2023/12/09 13:57:28;;;;;;;4.85;4.35;;;;;;;;;;5035005;28;20037;-79
2023/12/09 13:59:56;;;;;;;5.05;3.67;;;;;;;;;;5027703;28;20054;-79
2023/12/09 14:02:23;;;;;;;3.22;2.72;;;;;;;;;;5018846;28;20060;-79
2023/12/09 14:04:55;;;;;;;5.75;3.65;;;;;;;;;;5035676;28;20049;-79
2023/12/09 14:07:24;;;;;;;5.32;4.45;;;;;;;;;;5013557;28;20056;-79
2023/12/09 14:09:53;;;;;;;5.38;3.83;;;;;;;;;;5024419;28;20103;-78
2023/12/09 14:12:23;;;;;;;8.68;2.95;;;;;;;;;;5019907;28;20204;-81
2023/12/09 14:14:53;;;;;;;6.00;2.60;;;;;;;;;;5031892;28;20050;-79
2023/12/09 14:17:22;;;;;;;4.75;2.90;;;;;;;;;;5034014;28;20064;-80
2023/12/09 14:19:51;;;;;;;4.32;3.92;;;;;;;;;;5033938;28;20073;-80
2023/12/09 14:22:19;;;;;;;3.58;3.28;;;;;;;;;;5019112;28;20046;-79
2023/12/09 14:24:48;;;;;;;4.80;3.75;;;;;;;;;;5020900;28;20046;-79
2023/12/09 14:27:15;;;;;;;5.45;4.25;;;;;;;;;;5037138;28;20045;-79
2023/12/09 14:29:45;;;;;;;5.53;4.93;;;;;;;;;;5032617;28;20052;-79